sensor_id;sensor_type;location;lat;lon;timestamp;P1;durP1;ratioP1;P2;durP2;ratioP2
31091;SDS011;67728;53.122;12.776;2024-03-07T00:01:24;835.37;;;375.53;;
31091;SDS011;67728;53.122;12.776;2024-03-07T00:02:56;834.47;;;380.80;;
31091;SDS011;67728;53.122;12.776;2024-03-07T00:04:29;832.47;;;368.93;;
31091;SDS011;67728;53.122;12.776;2024-03-07T00:06:01;846.13;;;376.20;;
31091;SDS011;67728;53.122;12.776;2024-03-07T00:07:33;838.93;;;382.83;;
31091;SDS011;67728;53.122;12.776;2024-03-07T00:09:05;834.50;;;379.07;;
31091;SDS011;67728;53.122;12.776;2024-03-07T00:10:36;844.30;;;394.47;;
31091;SDS011;67728;53.122;12.776;2024-03-07T00:12:08;834.07;;;374.80;;
31091;SDS011;67728;53.122;12.776;2024-03-07T00:13:38;839.27;;;382.07;;
31091;SDS011;67728;53.122;12.776;2024-03-07T00:15:11;840.20;;;376.20;;
31091;SDS011;67728;53.122;12.776;2024-03-07T00:16:43;843.90;;;378.27;;
31091;SDS011;67728;53.122;12.776;2024-03-07T00:18:14;840.07;;;371.60;;
31091;SDS011;67728;53.122;12.776;2024-03-07T00:19:47;847.07;;;382.63;;
31091;SDS011;67728;53.122;12.776;2024-03-07T00:21:18;843.07;;;384.00;;
31091;SDS011;67728;53.122;12.776;2024-03-07T00:22:49;857.13;;;397.20;;
31091;SDS011;67728;53.122;12.776;2024-03-07T00:24:20;847.03;;;385.53;;
31091;SDS011;67728;53.122;12.776;2024-03-07T00:25:52;845.27;;;372.87;;
31091;SDS011;67728;53.122;12.776;2024-03-07T00:27:23;839.77;;;371.27;;
31091;SDS011;67728;53.122;12.776;2024-03-07T00:28:56;870.17;;;381.40;;
31091;SDS011;67728;53.122;12.776;2024-03-07T00:30:27;842.03;;;380.87;;
31091;SDS011;67728;53.122;12.776;2024-03-07T00:31:59;844.43;;;385.87;;
31091;SDS011;67728;53.122;12.776;2024-03-07T00:33:31;844.57;;;382.07;;
31091;SDS011;67728;53.122;12.776;2024-03-07T00:35:04;861.17;;;385.57;;
31091;SDS011;67728;53.122;12.776;2024-03-07T00:36:36;882.73;;;400.77;;
31091;SDS011;67728;53.122;12.776;2024-03-07T00:38:08;851.20;;;392.43;;
31091;SDS011;67728;53.122;12.776;2024-03-07T00:39:39;855.77;;;396.07;;
31091;SDS011;67728;53.122;12.776;2024-03-07T00:41:11;871.23;;;400.83;;
31091;SDS011;67728;53.122;12.776;2024-03-07T00:42:42;860.13;;;404.10;;
31091;SDS011;67728;53.122;12.776;2024-03-07T00:44:13;858.33;;;395.80;;
31091;SDS011;67728;53.122;12.776;2024-03-07T00:45:44;859.17;;;391.43;;
31091;SDS011;67728;53.122;12.776;2024-03-07T00:47:19;880.40;;;392.87;;
31091;SDS011;67728;53.122;12.776;2024-03-07T00:48:51;860.83;;;397.07;;
31091;SDS011;67728;53.122;12.776;2024-03-07T00:50:23;869.70;;;400.43;;
31091;SDS011;67728;53.122;12.776;2024-03-07T00:51:55;857.77;;;390.57;;
31091;SDS011;67728;53.122;12.776;2024-03-07T00:53:25;859.83;;;392.80;;
31091;SDS011;67728;53.122;12.776;2024-03-07T00:54:57;859.80;;;392.33;;
31091;SDS011;67728;53.122;12.776;2024-03-07T00:56:28;858.00;;;394.10;;
31091;SDS011;67728;53.122;12.776;2024-03-07T00:57:59;873.63;;;404.83;;
31091;SDS011;67728;53.122;12.776;2024-03-07T00:59:30;863.57;;;403.20;;
31091;SDS011;67728;53.122;12.776;2024-03-07T01:01:02;861.07;;;394.03;;
31091;SDS011;67728;53.122;12.776;2024-03-07T01:02:33;871.87;;;408.57;;
31091;SDS011;67728;53.122;12.776;2024-03-07T01:04:05;862.57;;;397.13;;
31091;SDS011;67728;53.122;12.776;2024-03-07T01:05:37;867.23;;;402.53;;
31091;SDS011;67728;53.122;12.776;2024-03-07T01:07:09;874.30;;;402.13;;
31091;SDS011;67728;53.122;12.776;2024-03-07T01:08:39;877.17;;;396.50;;
31091;SDS011;67728;53.122;12.776;2024-03-07T01:10:12;856.43;;;396.73;;
31091;SDS011;67728;53.122;12.776;2024-03-07T01:11:44;862.00;;;406.07;;
31091;SDS011;67728;53.122;12.776;2024-03-07T01:13:16;847.37;;;388.90;;
31091;SDS011;67728;53.122;12.776;2024-03-07T01:14:52;874.43;;;420.80;;
31091;SDS011;67728;53.122;12.776;2024-03-07T01:16:23;882.83;;;427.77;;
31091;SDS011;67728;53.122;12.776;2024-03-07T01:17:54;871.17;;;414.97;;
31091;SDS011;67728;53.122;12.776;2024-03-07T01:19:26;873.73;;;417.57;;
31091;SDS011;67728;53.122;12.776;2024-03-07T01:20:58;875.40;;;406.70;;
31091;SDS011;67728;53.122;12.776;2024-03-07T01:22:30;880.07;;;417.13;;
31091;SDS011;67728;53.122;12.776;2024-03-07T01:24:00;877.20;;;412.50;;
31091;SDS011;67728;53.122;12.776;2024-03-07T01:25:32;884.10;;;408.70;;
31091;SDS011;67728;53.122;12.776;2024-03-07T01:27:03;868.37;;;407.73;;
31091;SDS011;67728;53.122;12.776;2024-03-07T01:28:35;868.17;;;412.17;;
31091;SDS011;67728;53.122;12.776;2024-03-07T01:30:07;860.20;;;402.57;;
31091;SDS011;67728;53.122;12.776;2024-03-07T01:31:40;868.87;;;402.33;;
31091;SDS011;67728;53.122;12.776;2024-03-07T01:33:10;862.00;;;404.00;;
31091;SDS011;67728;53.122;12.776;2024-03-07T01:34:42;868.43;;;405.63;;
31091;SDS011;67728;53.122;12.776;2024-03-07T01:36:14;861.63;;;404.43;;
31091;SDS011;67728;53.122;12.776;2024-03-07T01:37:45;868.07;;;404.37;;
31091;SDS011;67728;53.122;12.776;2024-03-07T01:39:16;865.80;;;403.87;;
31091;SDS011;67728;53.122;12.776;2024-03-07T01:40:48;883.03;;;417.57;;
31091;SDS011;67728;53.122;12.776;2024-03-07T01:42:18;863.40;;;398.13;;
31091;SDS011;67728;53.122;12.776;2024-03-07T01:43:50;875.33;;;407.30;;
31091;SDS011;67728;53.122;12.776;2024-03-07T01:45:22;868.80;;;395.10;;
31091;SDS011;67728;53.122;12.776;2024-03-07T01:46:52;867.33;;;400.03;;
31091;SDS011;67728;53.122;12.776;2024-03-07T01:48:25;862.60;;;403.20;;
31091;SDS011;67728;53.122;12.776;2024-03-07T01:49:56;854.73;;;394.00;;
31091;SDS011;67728;53.122;12.776;2024-03-07T01:51:30;806.53;;;341.30;;
31091;SDS011;67728;53.122;12.776;2024-03-07T01:53:01;845.13;;;389.67;;
31091;SDS011;67728;53.122;12.776;2024-03-07T01:54:33;833.00;;;373.67;;
31091;SDS011;67728;53.122;12.776;2024-03-07T01:56:05;872.60;;;400.80;;
31091;SDS011;67728;53.122;12.776;2024-03-07T01:57:37;883.80;;;402.33;;
31091;SDS011;67728;53.122;12.776;2024-03-07T01:59:08;864.80;;;399.73;;
31091;SDS011;67728;53.122;12.776;2024-03-07T02:00:41;863.73;;;392.97;;
31091;SDS011;67728;53.122;12.776;2024-03-07T02:02:13;862.27;;;382.00;;
31091;SDS011;67728;53.122;12.776;2024-03-07T02:03:45;874.10;;;380.00;;
31091;SDS011;67728;53.122;12.776;2024-03-07T02:05:16;854.87;;;383.63;;
31091;SDS011;67728;53.122;12.776;2024-03-07T02:06:49;798.50;;;331.97;;
31091;SDS011;67728;53.122;12.776;2024-03-07T02:08:20;847.93;;;370.07;;
31091;SDS011;67728;53.122;12.776;2024-03-07T02:09:58;854.23;;;372.53;;
31091;SDS011;67728;53.122;12.776;2024-03-07T02:11:29;858.93;;;391.73;;
31091;SDS011;67728;53.122;12.776;2024-03-07T02:13:01;867.67;;;405.20;;
31091;SDS011;67728;53.122;12.776;2024-03-07T02:14:32;868.17;;;388.03;;
31091;SDS011;67728;53.122;12.776;2024-03-07T02:16:04;855.27;;;385.73;;
31091;SDS011;67728;53.122;12.776;2024-03-07T02:17:35;860.17;;;387.53;;
31091;SDS011;67728;53.122;12.776;2024-03-07T02:19:08;855.93;;;384.37;;
31091;SDS011;67728;53.122;12.776;2024-03-07T02:20:46;871.07;;;373.77;;
31091;SDS011;67728;53.122;12.776;2024-03-07T02:22:17;857.77;;;375.03;;
31091;SDS011;67728;53.122;12.776;2024-03-07T02:23:49;863.80;;;363.93;;
31091;SDS011;67728;53.122;12.776;2024-03-07T02:25:19;859.57;;;366.00;;
31091;SDS011;67728;53.122;12.776;2024-03-07T02:26:51;853.07;;;368.93;;
31091;SDS011;67728;53.122;12.776;2024-03-07T02:28:22;852.80;;;368.40;;
31091;SDS011;67728;53.122;12.776;2024-03-07T02:29:54;872.70;;;380.40;;
31091;SDS011;67728;53.122;12.776;2024-03-07T02:31:24;868.73;;;372.27;;
31091;SDS011;67728;53.122;12.776;2024-03-07T02:33:05;859.17;;;371.97;;
31091;SDS011;67728;53.122;12.776;2024-03-07T02:34:36;863.83;;;372.57;;
31091;SDS011;67728;53.122;12.776;2024-03-07T02:36:09;875.57;;;362.57;;
31091;SDS011;67728;53.122;12.776;2024-03-07T02:37:40;859.03;;;369.43;;
31091;SDS011;67728;53.122;12.776;2024-03-07T02:39:11;858.20;;;373.13;;
31091;SDS011;67728;53.122;12.776;2024-03-07T02:40:42;859.13;;;368.13;;
31091;SDS011;67728;53.122;12.776;2024-03-07T02:42:13;847.57;;;363.40;;
31091;SDS011;67728;53.122;12.776;2024-03-07T02:43:44;851.67;;;362.57;;
31091;SDS011;67728;53.122;12.776;2024-03-07T02:45:16;851.33;;;367.37;;
31091;SDS011;67728;53.122;12.776;2024-03-07T02:46:46;850.70;;;358.63;;
31091;SDS011;67728;53.122;12.776;2024-03-07T02:48:18;840.17;;;349.57;;
31091;SDS011;67728;53.122;12.776;2024-03-07T02:49:49;840.90;;;354.73;;
31091;SDS011;67728;53.122;12.776;2024-03-07T02:51:21;838.33;;;353.33;;
31091;SDS011;67728;53.122;12.776;2024-03-07T02:52:54;835.20;;;349.50;;
31091;SDS011;67728;53.122;12.776;2024-03-07T02:54:25;840.10;;;357.53;;
31091;SDS011;67728;53.122;12.776;2024-03-07T02:55:57;849.47;;;356.30;;
31091;SDS011;67728;53.122;12.776;2024-03-07T02:57:28;845.33;;;359.13;;
31091;SDS011;67728;53.122;12.776;2024-03-07T02:58:59;847.00;;;357.40;;
31091;SDS011;67728;53.122;12.776;2024-03-07T03:00:30;843.10;;;350.70;;
31091;SDS011;67728;53.122;12.776;2024-03-07T03:02:02;841.40;;;351.47;;
31091;SDS011;67728;53.122;12.776;2024-03-07T03:03:32;849.47;;;362.37;;
31091;SDS011;67728;53.122;12.776;2024-03-07T03:05:04;848.33;;;354.63;;
31091;SDS011;67728;53.122;12.776;2024-03-07T03:06:39;852.50;;;371.33;;
31091;SDS011;67728;53.122;12.776;2024-03-07T03:08:11;863.77;;;365.60;;
31091;SDS011;67728;53.122;12.776;2024-03-07T03:09:44;852.80;;;366.20;;
31091;SDS011;67728;53.122;12.776;2024-03-07T03:11:14;862.97;;;377.73;;
31091;SDS011;67728;53.122;12.776;2024-03-07T03:12:46;853.37;;;372.43;;
31091;SDS011;67728;53.122;12.776;2024-03-07T03:14:17;870.17;;;371.40;;
31091;SDS011;67728;53.122;12.776;2024-03-07T03:15:49;851.47;;;362.83;;
31091;SDS011;67728;53.122;12.776;2024-03-07T03:17:19;849.80;;;361.67;;
31091;SDS011;67728;53.122;12.776;2024-03-07T03:18:51;850.27;;;369.43;;
31091;SDS011;67728;53.122;12.776;2024-03-07T03:20:21;859.70;;;352.97;;
31091;SDS011;67728;53.122;12.776;2024-03-07T03:21:57;852.17;;;355.07;;
31091;SDS011;67728;53.122;12.776;2024-03-07T03:23:28;850.03;;;367.90;;
31091;SDS011;67728;53.122;12.776;2024-03-07T03:24:59;842.43;;;360.77;;
31091;SDS011;67728;53.122;12.776;2024-03-07T03:26:31;873.20;;;362.73;;
31091;SDS011;67728;53.122;12.776;2024-03-07T03:28:03;846.20;;;366.53;;
31091;SDS011;67728;53.122;12.776;2024-03-07T03:29:34;865.77;;;365.30;;
31091;SDS011;67728;53.122;12.776;2024-03-07T03:31:05;849.73;;;363.23;;
31091;SDS011;67728;53.122;12.776;2024-03-07T03:32:39;862.20;;;361.73;;
31091;SDS011;67728;53.122;12.776;2024-03-07T03:34:09;858.67;;;370.17;;
31091;SDS011;67728;53.122;12.776;2024-03-07T03:35:41;882.20;;;372.10;;
31091;SDS011;67728;53.122;12.776;2024-03-07T03:37:14;856.87;;;367.30;;
31091;SDS011;67728;53.122;12.776;2024-03-07T03:38:45;859.43;;;362.97;;
31091;SDS011;67728;53.122;12.776;2024-03-07T03:40:16;852.63;;;362.60;;
31091;SDS011;67728;53.122;12.776;2024-03-07T03:41:48;863.67;;;367.83;;
31091;SDS011;67728;53.122;12.776;2024-03-07T03:43:18;876.53;;;370.53;;
31091;SDS011;67728;53.122;12.776;2024-03-07T03:44:50;855.13;;;362.13;;
31091;SDS011;67728;53.122;12.776;2024-03-07T03:46:22;861.73;;;374.93;;
31091;SDS011;67728;53.122;12.776;2024-03-07T03:47:54;860.33;;;375.27;;
31091;SDS011;67728;53.122;12.776;2024-03-07T03:49:25;857.90;;;371.47;;
31091;SDS011;67728;53.122;12.776;2024-03-07T03:50:56;858.07;;;368.97;;
31091;SDS011;67728;53.122;12.776;2024-03-07T03:52:28;851.87;;;361.27;;
31091;SDS011;67728;53.122;12.776;2024-03-07T03:54:00;853.90;;;363.90;;
31091;SDS011;67728;53.122;12.776;2024-03-07T03:55:32;853.23;;;359.70;;
31091;SDS011;67728;53.122;12.776;2024-03-07T03:57:04;849.17;;;365.67;;
31091;SDS011;67728;53.122;12.776;2024-03-07T03:58:35;854.63;;;349.80;;
31091;SDS011;67728;53.122;12.776;2024-03-07T04:00:08;835.67;;;343.77;;
31091;SDS011;67728;53.122;12.776;2024-03-07T04:01:42;848.77;;;357.03;;
31091;SDS011;67728;53.122;12.776;2024-03-07T04:03:15;849.27;;;361.60;;
31091;SDS011;67728;53.122;12.776;2024-03-07T04:04:46;877.17;;;377.30;;
31091;SDS011;67728;53.122;12.776;2024-03-07T04:06:18;851.20;;;367.63;;
31091;SDS011;67728;53.122;12.776;2024-03-07T04:07:50;852.83;;;360.93;;
31091;SDS011;67728;53.122;12.776;2024-03-07T04:09:22;859.77;;;370.97;;
31091;SDS011;67728;53.122;12.776;2024-03-07T04:10:53;859.43;;;366.70;;
31091;SDS011;67728;53.122;12.776;2024-03-07T04:12:25;867.63;;;378.97;;
31091;SDS011;67728;53.122;12.776;2024-03-07T04:13:56;868.07;;;377.77;;
31091;SDS011;67728;53.122;12.776;2024-03-07T04:15:28;874.43;;;369.13;;
31091;SDS011;67728;53.122;12.776;2024-03-07T04:17:01;867.60;;;380.17;;
31091;SDS011;67728;53.122;12.776;2024-03-07T04:18:32;869.77;;;371.23;;
31091;SDS011;67728;53.122;12.776;2024-03-07T04:20:03;866.50;;;377.10;;
31091;SDS011;67728;53.122;12.776;2024-03-07T04:21:36;865.67;;;373.70;;
31091;SDS011;67728;53.122;12.776;2024-03-07T04:23:08;863.53;;;371.60;;
31091;SDS011;67728;53.122;12.776;2024-03-07T04:24:40;861.13;;;366.63;;
31091;SDS011;67728;53.122;12.776;2024-03-07T04:26:11;870.77;;;381.00;;
31091;SDS011;67728;53.122;12.776;2024-03-07T04:27:43;866.70;;;372.30;;
31091;SDS011;67728;53.122;12.776;2024-03-07T04:29:15;857.97;;;366.77;;
31091;SDS011;67728;53.122;12.776;2024-03-07T04:30:46;893.17;;;377.93;;
31091;SDS011;67728;53.122;12.776;2024-03-07T04:32:19;859.37;;;373.83;;
31091;SDS011;67728;53.122;12.776;2024-03-07T04:33:51;855.47;;;362.37;;
31091;SDS011;67728;53.122;12.776;2024-03-07T04:35:22;861.17;;;374.87;;
31091;SDS011;67728;53.122;12.776;2024-03-07T04:36:54;868.90;;;370.43;;
31091;SDS011;67728;53.122;12.776;2024-03-07T04:38:27;858.87;;;369.60;;
31091;SDS011;67728;53.122;12.776;2024-03-07T04:39:58;871.03;;;369.40;;
31091;SDS011;67728;53.122;12.776;2024-03-07T04:41:30;860.33;;;372.20;;
31091;SDS011;67728;53.122;12.776;2024-03-07T04:43:00;872.37;;;368.23;;
31091;SDS011;67728;53.122;12.776;2024-03-07T04:44:32;848.63;;;354.57;;
31091;SDS011;67728;53.122;12.776;2024-03-07T04:46:05;856.77;;;358.23;;
31091;SDS011;67728;53.122;12.776;2024-03-07T04:47:37;852.90;;;358.17;;
31091;SDS011;67728;53.122;12.776;2024-03-07T04:49:08;868.07;;;369.50;;
31091;SDS011;67728;53.122;12.776;2024-03-07T04:50:40;853.90;;;367.27;;
31091;SDS011;67728;53.122;12.776;2024-03-07T04:52:12;851.93;;;366.63;;
31091;SDS011;67728;53.122;12.776;2024-03-07T04:53:44;851.37;;;363.23;;
31091;SDS011;67728;53.122;12.776;2024-03-07T04:55:16;851.60;;;360.93;;
31091;SDS011;67728;53.122;12.776;2024-03-07T04:56:48;847.50;;;357.83;;
31091;SDS011;67728;53.122;12.776;2024-03-07T04:58:21;840.97;;;351.00;;
31091;SDS011;67728;53.122;12.776;2024-03-07T04:59:51;847.53;;;357.50;;
31091;SDS011;67728;53.122;12.776;2024-03-07T05:01:23;843.20;;;337.33;;
31091;SDS011;67728;53.122;12.776;2024-03-07T05:02:55;845.50;;;329.57;;
31091;SDS011;67728;53.122;12.776;2024-03-07T05:04:27;841.20;;;333.43;;
31091;SDS011;67728;53.122;12.776;2024-03-07T05:05:59;839.80;;;330.53;;
31091;SDS011;67728;53.122;12.776;2024-03-07T05:07:30;837.87;;;325.93;;
31091;SDS011;67728;53.122;12.776;2024-03-07T05:09:03;851.23;;;314.80;;
31091;SDS011;67728;53.122;12.776;2024-03-07T05:10:37;832.07;;;312.83;;
31091;SDS011;67728;53.122;12.776;2024-03-07T05:12:07;836.17;;;313.10;;
31091;SDS011;67728;53.122;12.776;2024-03-07T05:13:39;832.40;;;317.73;;
31091;SDS011;67728;53.122;12.776;2024-03-07T05:15:12;844.93;;;311.40;;
31091;SDS011;67728;53.122;12.776;2024-03-07T05:16:44;835.17;;;318.60;;
31091;SDS011;67728;53.122;12.776;2024-03-07T05:18:14;830.87;;;320.23;;
31091;SDS011;67728;53.122;12.776;2024-03-07T05:19:46;845.33;;;324.13;;
31091;SDS011;67728;53.122;12.776;2024-03-07T05:21:19;852.77;;;326.80;;
31091;SDS011;67728;53.122;12.776;2024-03-07T05:23:08;833.13;;;315.37;;
31091;SDS011;67728;53.122;12.776;2024-03-07T05:24:42;842.20;;;327.83;;
31091;SDS011;67728;53.122;12.776;2024-03-07T05:26:13;841.83;;;338.10;;
31091;SDS011;67728;53.122;12.776;2024-03-07T05:27:45;840.87;;;327.43;;
31091;SDS011;67728;53.122;12.776;2024-03-07T05:29:17;860.57;;;328.47;;
31091;SDS011;67728;53.122;12.776;2024-03-07T05:30:48;835.93;;;324.37;;
31091;SDS011;67728;53.122;12.776;2024-03-07T05:32:20;836.20;;;326.87;;
31091;SDS011;67728;53.122;12.776;2024-03-07T05:33:52;835.77;;;326.00;;
31091;SDS011;67728;53.122;12.776;2024-03-07T05:35:23;844.97;;;321.90;;
31091;SDS011;67728;53.122;12.776;2024-03-07T05:36:54;839.67;;;328.93;;
31091;SDS011;67728;53.122;12.776;2024-03-07T05:38:26;846.40;;;327.37;;
31091;SDS011;67728;53.122;12.776;2024-03-07T05:39:59;836.17;;;323.97;;
31091;SDS011;67728;53.122;12.776;2024-03-07T05:41:33;855.70;;;328.20;;
31091;SDS011;67728;53.122;12.776;2024-03-07T05:43:04;835.63;;;323.43;;
31091;SDS011;67728;53.122;12.776;2024-03-07T05:44:36;841.07;;;323.43;;
31091;SDS011;67728;53.122;12.776;2024-03-07T05:46:07;850.37;;;331.33;;
31091;SDS011;67728;53.122;12.776;2024-03-07T05:47:40;866.27;;;330.10;;
31091;SDS011;67728;53.122;12.776;2024-03-07T05:49:11;835.83;;;325.77;;
31091;SDS011;67728;53.122;12.776;2024-03-07T05:50:43;832.70;;;318.00;;
31091;SDS011;67728;53.122;12.776;2024-03-07T05:52:14;838.97;;;323.63;;
31091;SDS011;67728;53.122;12.776;2024-03-07T05:53:45;845.80;;;314.57;;
31091;SDS011;67728;53.122;12.776;2024-03-07T05:57:13;831.27;;;303.87;;
31091;SDS011;67728;53.122;12.776;2024-03-07T05:58:43;831.47;;;298.13;;
31091;SDS011;67728;53.122;12.776;2024-03-07T06:00:15;817.43;;;288.97;;
31091;SDS011;67728;53.122;12.776;2024-03-07T06:01:56;840.50;;;309.67;;
31091;SDS011;67728;53.122;12.776;2024-03-07T06:03:28;910.30;;;324.73;;
31091;SDS011;67728;53.122;12.776;2024-03-07T06:04:59;831.73;;;309.47;;
31091;SDS011;67728;53.122;12.776;2024-03-07T06:06:34;832.80;;;306.90;;
31091;SDS011;67728;53.122;12.776;2024-03-07T06:08:05;825.43;;;298.20;;
31091;SDS011;67728;53.122;12.776;2024-03-07T06:09:37;840.40;;;332.87;;
31091;SDS011;67728;53.122;12.776;2024-03-07T06:11:09;833.53;;;311.47;;
31091;SDS011;67728;53.122;12.776;2024-03-07T06:12:41;829.20;;;315.07;;
31091;SDS011;67728;53.122;12.776;2024-03-07T06:14:15;836.40;;;320.60;;
31091;SDS011;67728;53.122;12.776;2024-03-07T06:15:48;847.23;;;319.07;;
31091;SDS011;67728;53.122;12.776;2024-03-07T06:17:18;834.40;;;317.83;;
31091;SDS011;67728;53.122;12.776;2024-03-07T06:18:53;825.30;;;312.27;;
31091;SDS011;67728;53.122;12.776;2024-03-07T06:20:24;841.00;;;313.63;;
31091;SDS011;67728;53.122;12.776;2024-03-07T06:21:55;824.23;;;312.50;;
31091;SDS011;67728;53.122;12.776;2024-03-07T06:23:26;830.73;;;315.97;;
31091;SDS011;67728;53.122;12.776;2024-03-07T06:24:58;824.00;;;313.13;;
31091;SDS011;67728;53.122;12.776;2024-03-07T06:26:38;830.00;;;319.23;;
31091;SDS011;67728;53.122;12.776;2024-03-07T06:28:16;828.97;;;317.70;;
31091;SDS011;67728;53.122;12.776;2024-03-07T06:29:48;836.20;;;317.40;;
31091;SDS011;67728;53.122;12.776;2024-03-07T06:31:20;826.87;;;334.40;;
31091;SDS011;67728;53.122;12.776;2024-03-07T06:32:53;825.00;;;312.60;;
31091;SDS011;67728;53.122;12.776;2024-03-07T06:34:24;824.03;;;311.20;;
31091;SDS011;67728;53.122;12.776;2024-03-07T06:35:57;842.13;;;326.30;;
31091;SDS011;67728;53.122;12.776;2024-03-07T06:37:28;828.73;;;326.00;;
31091;SDS011;67728;53.122;12.776;2024-03-07T06:38:59;826.63;;;317.40;;
31091;SDS011;67728;53.122;12.776;2024-03-07T06:40:30;825.63;;;314.50;;
31091;SDS011;67728;53.122;12.776;2024-03-07T06:42:04;825.97;;;316.23;;
31091;SDS011;67728;53.122;12.776;2024-03-07T06:43:35;834.37;;;323.33;;
31091;SDS011;67728;53.122;12.776;2024-03-07T06:45:06;839.40;;;355.27;;
31091;SDS011;67728;53.122;12.776;2024-03-07T06:46:39;842.63;;;352.80;;
31091;SDS011;67728;53.122;12.776;2024-03-07T06:48:10;834.43;;;349.57;;
31091;SDS011;67728;53.122;12.776;2024-03-07T06:49:41;842.13;;;352.23;;
31091;SDS011;67728;53.122;12.776;2024-03-07T06:51:13;853.13;;;353.60;;
31091;SDS011;67728;53.122;12.776;2024-03-07T06:52:43;843.00;;;351.63;;
31091;SDS011;67728;53.122;12.776;2024-03-07T06:54:17;837.23;;;350.07;;
31091;SDS011;67728;53.122;12.776;2024-03-07T06:55:48;849.07;;;356.97;;
31091;SDS011;67728;53.122;12.776;2024-03-07T06:57:22;838.30;;;355.47;;
31091;SDS011;67728;53.122;12.776;2024-03-07T06:58:53;841.57;;;355.43;;
31091;SDS011;67728;53.122;12.776;2024-03-07T07:00:26;838.00;;;355.90;;
31091;SDS011;67728;53.122;12.776;2024-03-07T07:01:57;849.30;;;356.60;;
31091;SDS011;67728;53.122;12.776;2024-03-07T07:03:29;842.53;;;367.00;;
31091;SDS011;67728;53.122;12.776;2024-03-07T07:05:00;855.33;;;349.27;;
31091;SDS011;67728;53.122;12.776;2024-03-07T07:06:31;841.37;;;360.00;;
31091;SDS011;67728;53.122;12.776;2024-03-07T07:08:03;908.30;;;367.67;;
31091;SDS011;67728;53.122;12.776;2024-03-07T07:09:35;842.23;;;360.50;;
31091;SDS011;67728;53.122;12.776;2024-03-07T07:11:07;841.73;;;346.63;;
31091;SDS011;67728;53.122;12.776;2024-03-07T07:12:39;847.97;;;359.60;;
31091;SDS011;67728;53.122;12.776;2024-03-07T07:14:10;855.07;;;360.23;;
31091;SDS011;67728;53.122;12.776;2024-03-07T07:15:42;843.30;;;356.63;;
31091;SDS011;67728;53.122;12.776;2024-03-07T07:17:13;837.13;;;354.27;;
31091;SDS011;67728;53.122;12.776;2024-03-07T07:18:45;849.50;;;352.00;;
31091;SDS011;67728;53.122;12.776;2024-03-07T07:20:16;845.07;;;354.60;;
31091;SDS011;67728;53.122;12.776;2024-03-07T07:21:47;844.70;;;362.03;;
31091;SDS011;67728;53.122;12.776;2024-03-07T07:23:23;839.40;;;358.47;;
31091;SDS011;67728;53.122;12.776;2024-03-07T07:24:55;850.10;;;365.90;;
31091;SDS011;67728;53.122;12.776;2024-03-07T07:26:26;846.73;;;376.53;;
31091;SDS011;67728;53.122;12.776;2024-03-07T07:27:59;847.57;;;359.70;;
31091;SDS011;67728;53.122;12.776;2024-03-07T07:29:31;838.20;;;356.83;;
31091;SDS011;67728;53.122;12.776;2024-03-07T07:31:06;840.10;;;358.33;;
31091;SDS011;67728;53.122;12.776;2024-03-07T07:32:37;830.90;;;347.30;;
31091;SDS011;67728;53.122;12.776;2024-03-07T07:34:11;839.87;;;350.83;;
31091;SDS011;67728;53.122;12.776;2024-03-07T07:35:43;851.10;;;386.00;;
31091;SDS011;67728;53.122;12.776;2024-03-07T07:37:13;842.40;;;361.30;;
31091;SDS011;67728;53.122;12.776;2024-03-07T07:38:45;836.17;;;334.43;;
31091;SDS011;67728;53.122;12.776;2024-03-07T07:40:17;831.30;;;329.67;;
31091;SDS011;67728;53.122;12.776;2024-03-07T07:41:49;822.70;;;324.20;;
31091;SDS011;67728;53.122;12.776;2024-03-07T07:43:22;840.50;;;332.10;;
31091;SDS011;67728;53.122;12.776;2024-03-07T07:44:53;834.93;;;346.40;;
31091;SDS011;67728;53.122;12.776;2024-03-07T07:46:25;852.83;;;352.47;;
31091;SDS011;67728;53.122;12.776;2024-03-07T07:47:56;827.00;;;341.53;;
31091;SDS011;67728;53.122;12.776;2024-03-07T07:49:28;840.67;;;347.37;;
31091;SDS011;67728;53.122;12.776;2024-03-07T07:51:00;837.00;;;353.10;;
31091;SDS011;67728;53.122;12.776;2024-03-07T07:52:31;834.53;;;348.30;;
31091;SDS011;67728;53.122;12.776;2024-03-07T07:54:02;830.37;;;347.83;;
31091;SDS011;67728;53.122;12.776;2024-03-07T07:55:34;833.43;;;359.53;;
31091;SDS011;67728;53.122;12.776;2024-03-07T07:57:05;827.07;;;346.93;;
31091;SDS011;67728;53.122;12.776;2024-03-07T07:58:38;853.60;;;368.67;;
31091;SDS011;67728;53.122;12.776;2024-03-07T08:00:09;826.57;;;342.97;;
31091;SDS011;67728;53.122;12.776;2024-03-07T08:01:42;833.00;;;351.70;;
31091;SDS011;67728;53.122;12.776;2024-03-07T08:03:13;866.30;;;365.10;;
31091;SDS011;67728;53.122;12.776;2024-03-07T08:04:48;838.00;;;367.20;;
31091;SDS011;67728;53.122;12.776;2024-03-07T08:06:19;834.83;;;363.77;;
31091;SDS011;67728;53.122;12.776;2024-03-07T08:07:51;830.80;;;363.03;;
31091;SDS011;67728;53.122;12.776;2024-03-07T08:09:22;830.50;;;360.97;;
31091;SDS011;67728;53.122;12.776;2024-03-07T08:10:54;834.13;;;369.17;;
31091;SDS011;67728;53.122;12.776;2024-03-07T08:12:24;836.83;;;379.47;;
31091;SDS011;67728;53.122;12.776;2024-03-07T08:13:57;837.47;;;372.43;;
31091;SDS011;67728;53.122;12.776;2024-03-07T08:15:30;839.63;;;375.07;;
31091;SDS011;67728;53.122;12.776;2024-03-07T08:17:01;835.73;;;377.93;;
31091;SDS011;67728;53.122;12.776;2024-03-07T08:18:32;847.00;;;382.33;;
31091;SDS011;67728;53.122;12.776;2024-03-07T08:20:03;837.10;;;389.00;;
31091;SDS011;67728;53.122;12.776;2024-03-07T08:21:40;837.53;;;374.47;;
31091;SDS011;67728;53.122;12.776;2024-03-07T08:23:12;825.37;;;355.50;;
31091;SDS011;67728;53.122;12.776;2024-03-07T08:24:43;844.67;;;363.20;;
31091;SDS011;67728;53.122;12.776;2024-03-07T08:26:14;830.90;;;367.77;;
31091;SDS011;67728;53.122;12.776;2024-03-07T08:27:46;834.40;;;374.43;;
31091;SDS011;67728;53.122;12.776;2024-03-07T08:29:20;841.30;;;379.17;;
31091;SDS011;67728;53.122;12.776;2024-03-07T08:30:52;842.83;;;362.10;;
31091;SDS011;67728;53.122;12.776;2024-03-07T08:32:22;831.10;;;369.67;;
31091;SDS011;67728;53.122;12.776;2024-03-07T08:33:56;835.80;;;372.23;;
31091;SDS011;67728;53.122;12.776;2024-03-07T08:35:27;850.00;;;373.40;;
31091;SDS011;67728;53.122;12.776;2024-03-07T08:36:59;832.87;;;369.53;;